Terminal Aerodrome Forecast
Issued by NWS Birmingham, AL

Current Version | Previous Version | Text Only | Print | Product List | Glossary On
Versions: 1 2 3 4 5 6 7 8 9 10 11 12 13 14
503
FTUS44 KBMX 241139
TAFBHM
TAF
KBHM 241139Z 2412/2512 06004KT P6SM SKC
     FM241500 09007KT P6SM FEW045
     FM250000 06003KT P6SM SCT150=

USA.gov is the U.S. government's official web portal to all federal, state and local government web resources and services.